Time;durP1;ratioP1;P1;durP2;ratioP2;P2;SDS_P1;SDS_P2;PMS_P1;PMS_P2;Temp;Humidity;BMP_temperature;BMP_pressure;BME280_temperature;BME280_humidity;BME280_pressure;Samples;Min_cycle;Max_cycle;Signal;HPM_P1;HPM_P2
2022/01/16 00:01:17;;;;;;;;;31.50;31.50;;;;;16.05;51.89;102324.63;4934061;29;8795;-77
2022/01/16 00:06:23;;;;;;;;;27.25;25.25;;;;;16.10;52.02;102330.88;4932976;29;10318;-77
2022/01/16 00:08:48;;;;;;;;;25.50;24.75;;;;;16.08;51.90;102314.19;4933667;29;10333;-78
2022/01/16 00:11:14;;;;;;;;;27.50;26.50;;;;;16.09;51.63;102326.47;4934003;29;10220;-78
2022/01/16 00:13:39;;;;;;;;;28.50;27.25;;;;;16.11;51.67;102332.69;4933254;29;8913;-78
2022/01/16 00:16:04;;;;;;;;;30.00;28.00;;;;;16.11;51.96;102335.31;4933866;29;8783;-78
2022/01/16 00:18:41;;;;;;;;;32.00;30.25;;;;;16.07;51.84;102336.09;4932886;29;8786;-78
2022/01/16 00:21:06;;;;;;;;;32.75;30.25;;;;;16.06;51.73;102329.03;4933924;29;8801;-78
2022/01/16 00:23:31;;;;;;;;;26.50;26.50;;;;;16.08;51.54;102327.34;4933482;29;10463;-77
2022/01/16 00:25:57;;;;;;;;;25.00;24.50;;;;;16.10;51.47;102317.72;4933039;29;8807;-78
2022/01/16 00:28:24;;;;;;;;;24.00;24.00;;;;;16.06;51.49;102331.69;4933772;29;8821;-78
2022/01/16 00:30:51;;;;;;;;;31.25;27.75;;;;;16.08;51.69;102322.06;4933188;29;8889;-78
2022/01/16 00:33:17;;;;;;;;;30.50;28.50;;;;;16.10;51.27;102323.00;4932627;29;10295;-78
2022/01/16 00:35:42;;;;;;;;;28.00;26.25;;;;;16.06;51.52;102328.16;4933422;29;10487;-78
2022/01/16 00:38:08;;;;;;;;;28.75;26.75;;;;;16.04;51.59;102335.13;4933774;29;8783;-78
2022/01/16 00:40:34;;;;;;;;;29.50;27.25;;;;;16.07;51.52;102335.19;4933065;29;8798;-78
2022/01/16 00:43:00;;;;;;;;;31.00;28.00;;;;;16.03;51.43;102331.59;4933283;29;10557;-78
2022/01/16 00:45:25;;;;;;;;;28.50;27.25;;;;;15.97;51.80;102331.47;4933663;29;8771;-78
2022/01/16 00:47:54;;;;;;;;;29.75;29.25;;;;;16.02;51.83;102342.09;4932220;29;8810;-77
2022/01/16 00:50:19;;;;;;;;;30.50;29.75;;;;;16.05;51.49;102337.78;4933254;29;8777;-77
2022/01/16 00:52:44;;;;;;;;;31.00;26.25;;;;;16.08;51.69;102324.72;4932995;29;10385;-77
2022/01/16 00:55:10;;;;;;;;;25.00;24.00;;;;;16.04;51.21;102306.16;4932866;29;8797;-77
2022/01/16 00:57:35;;;;;;;;;31.75;29.00;;;;;16.07;51.27;102316.75;4933744;29;8774;-77
2022/01/16 01:00:01;;;;;;;;;32.25;29.50;;;;;16.05;51.29;102311.44;4932830;29;8771;-77
2022/01/16 01:02:26;;;;;;;;;24.00;23.50;;;;;16.05;51.06;102282.47;4933030;29;8797;-77
2022/01/16 01:04:52;;;;;;;;;35.00;31.00;;;;;16.03;51.38;102273.66;4933356;29;8850;-77
2022/01/16 01:07:17;;;;;;;;;23.25;22.25;;;;;16.05;51.28;102277.19;4933004;29;9570;-76
2022/01/16 01:09:43;;;;;;;;;30.00;28.00;;;;;16.01;51.63;102285.88;4934600;29;8803;-77
2022/01/16 01:12:13;;;;;;;;;22.50;21.25;;;;;16.05;51.09;102278.94;4936944;29;8786;-77
2022/01/16 01:14:41;;;;;;;;;33.75;32.25;;;;;16.06;51.43;102291.25;4936618;29;8795;-77
2022/01/16 01:17:09;;;;;;;;;29.50;26.25;;;;;16.06;51.12;102302.69;4936854;29;10457;-77
2022/01/16 01:19:35;;;;;;;;;35.75;28.50;;;;;16.07;51.12;102296.56;4936575;29;10563;-77
2022/01/16 01:22:06;;;;;;;;;33.50;31.50;;;;;16.05;51.24;102307.91;4935732;29;10242;-77
2022/01/16 01:24:35;;;;;;;;;34.75;28.25;;;;;15.99;51.27;102291.97;4936624;29;11000;-78
2022/01/16 01:27:08;;;;;;;;;27.75;27.25;;;;;16.00;51.23;102292.03;4936105;29;11236;-77
2022/01/16 01:29:34;;;;;;;;;30.25;29.25;;;;;16.01;51.05;102288.53;4935675;29;10527;-78
2022/01/16 01:32:00;;;;;;;;;28.25;27.00;;;;;16.04;51.23;102314.97;4936393;29;10316;-78
2022/01/16 01:34:26;;;;;;;;;32.00;32.00;;;;;16.03;51.27;102301.75;4936514;29;10308;-78
2022/01/16 01:36:54;;;;;;;;;28.25;24.25;;;;;16.03;51.10;102305.25;4935525;29;10311;-78
2022/01/16 01:39:21;;;;;;;;;35.00;33.25;;;;;16.00;51.12;102299.94;4936573;29;8866;-78
2022/01/16 01:41:50;;;;;;;;;27.00;26.25;;;;;16.02;51.10;102265.69;4936031;29;11311;-78
2022/01/16 01:52:28;;;;;;;;;28.50;27.00;;;;;15.99;50.90;102228.75;4935785;29;10282;-78
2022/01/16 01:54:54;;;;;;;;;34.75;29.50;;;;;16.03;50.73;102246.41;4935959;29;10255;-78
2022/01/16 01:57:22;;;;;;;;;28.50;28.25;;;;;16.00;51.17;102273.59;4935437;29;10319;-78
2022/01/16 01:59:47;;;;;;;;;29.50;26.75;;;;;16.02;51.01;102278.88;4936126;29;8908;-77
2022/01/16 02:02:13;;;;;;;;;33.00;29.00;;;;;16.02;50.87;102290.31;4936180;29;11089;-77
2022/01/16 02:04:38;;;;;;;;;26.25;25.25;;;;;16.01;51.19;102309.59;4935408;29;8810;-77
2022/01/16 02:07:03;;;;;;;;;29.00;25.00;;;;;16.01;50.95;102300.84;4935405;29;8806;-77
2022/01/16 02:09:31;;;;;;;;;29.00;28.00;;;;;15.97;51.11;102313.03;4935764;29;8897;-77
2022/01/16 02:11:56;;;;;;;;;29.75;27.50;;;;;15.99;50.89;102316.59;4934893;29;8802;-77
2022/01/16 02:14:35;;;;;;;;;30.75;26.75;;;;;16.02;51.13;102310.47;4935729;29;10324;-77
2022/01/16 02:28:17;;;;;;;;;28.75;27.50;;;;;15.97;50.90;102306.88;4934877;29;10390;-77
2022/01/16 02:36:27;;;;;;;;;30.75;28.25;;;;;16.03;50.91;102304.38;4935120;29;10376;-77
2022/01/16 02:38:59;;;;;;;;;29.25;24.25;;;;;15.98;51.19;102309.53;4934989;29;10266;-77
2022/01/16 02:41:24;;;;;;;;;27.00;24.25;;;;;16.02;51.05;102327.19;4934654;29;10240;-78
2022/01/16 02:43:51;;;;;;;;;30.00;30.00;;;;;16.02;50.77;102299.94;4934932;29;11117;-77
2022/01/16 02:48:49;;;;;;;;;27.50;24.50;;;;;16.00;51.14;102297.28;4934833;29;10337;-77
2022/01/16 02:51:22;;;;;;;;;26.50;25.50;;;;;15.99;51.00;102289.34;4935194;29;10132;-78
2022/01/16 02:53:49;;;;;;;;;24.00;23.50;;;;;15.99;50.94;102284.06;4933843;29;10176;-78
2022/01/16 02:56:15;;;;;;;;;34.25;29.75;;;;;15.95;50.98;102281.38;4934842;29;10208;-77
2022/01/16 02:58:42;;;;;;;;;25.50;24.25;;;;;15.96;50.91;102292.81;4934733;29;10161;-78
2022/01/16 03:01:07;;;;;;;;;26.25;25.00;;;;;15.97;51.41;102277.91;4933911;29;10227;-78
2022/01/16 03:03:32;;;;;;;;;26.75;25.00;;;;;15.93;50.87;102271.69;4934804;29;10384;-77
2022/01/16 03:05:58;;;;;;;;;30.25;28.00;;;;;15.95;50.87;102268.22;4934104;29;8822;-77
2022/01/16 03:08:23;;;;;;;;;35.50;30.00;;;;;15.97;51.00;102260.34;4933910;29;8826;-77
2022/01/16 03:13:17;;;;;;;;;25.00;24.25;;;;;15.94;50.97;102253.25;4934922;29;8789;-77
2022/01/16 03:15:43;;;;;;;;;28.75;27.00;;;;;15.97;51.25;102252.47;4933573;29;10178;-77
2022/01/16 03:23:21;;;;;;;;;30.00;29.25;;;;;15.94;50.96;102240.09;4933763;29;8747;-77
2022/01/16 03:25:48;;;;;;;;;31.25;28.75;;;;;15.98;50.87;102242.78;4934254;29;10378;-77
2022/01/16 03:28:14;;;;;;;;;30.00;25.50;;;;;15.99;50.71;102245.47;4934289;29;10265;-77
2022/01/16 03:30:40;;;;;;;;;30.50;27.00;;;;;15.94;50.89;102247.09;4933415;29;10571;-76
2022/01/16 03:33:05;;;;;;;;;25.50;24.50;;;;;15.93;51.17;102242.72;4934232;29;10410;-78
2022/01/16 03:35:31;;;;;;;;;26.75;24.00;;;;;15.94;50.89;102228.66;4933448;29;9448;-78
2022/01/16 03:37:59;;;;;;;;;28.00;24.75;;;;;15.94;50.99;102236.56;4934069;29;8774;-77
2022/01/16 03:40:25;;;;;;;;;24.75;22.50;;;;;15.94;50.66;102223.38;4934526;29;8775;-78
2022/01/16 03:42:53;;;;;;;;;29.50;26.50;;;;;15.97;51.01;102226.13;4933113;29;10221;-78
2022/01/16 03:45:19;;;;;;;;;26.00;24.75;;;;;15.95;50.76;102220.81;4934177;29;8783;-77
2022/01/16 03:47:44;;;;;;;;;24.25;24.25;;;;;16.01;50.65;102230.56;4933514;29;10272;-77
2022/01/16 03:50:12;;;;;;;;;24.75;23.75;;;;;15.96;50.92;102229.59;4933444;29;11430;-77
2022/01/16 03:52:37;;;;;;;;;27.00;26.00;;;;;15.97;50.59;102225.22;4934002;29;8816;-77
2022/01/16 03:55:04;;;;;;;;;25.00;23.00;;;;;15.94;50.67;102231.28;4933727;29;10148;-77
2022/01/16 03:57:32;;;;;;;;;24.00;23.25;;;;;15.96;50.72;102232.22;4933357;29;8896;-77
2022/01/16 03:59:58;;;;;;;;;29.75;27.75;;;;;15.95;50.56;102238.34;4933842;29;10212;-77
2022/01/16 04:02:23;;;;;;;;;22.25;22.25;;;;;15.94;51.02;102229.56;4933865;29;10231;-76
2022/01/16 04:04:48;;;;;;;;;27.25;25.75;;;;;15.94;50.80;102236.56;4933125;29;8785;-76
2022/01/16 04:07:20;;;;;;;;;26.75;25.25;;;;;15.93;50.74;102235.66;4933513;29;8906;-76
2022/01/16 04:09:45;;;;;;;;;23.50;23.50;;;;;15.92;50.48;102226.00;4933748;29;8787;-77
2022/01/16 04:12:11;;;;;;;;;23.25;20.75;;;;;15.88;50.58;102221.53;4932863;29;10139;-77
2022/01/16 04:17:16;;;;;;;;;22.75;22.25;;;;;15.93;50.60;102221.63;4933961;29;8760;-77
2022/01/16 04:19:42;;;;;;;;;22.00;20.00;;;;;15.92;50.74;102220.75;4932911;29;10117;-77
2022/01/16 04:22:10;;;;;;;;;26.75;24.00;;;;;15.97;50.71;102225.22;4933675;29;10061;-77
2022/01/16 04:24:36;;;;;;;;;23.00;23.00;;;;;15.90;50.62;102224.19;4932972;29;10216;-77
2022/01/16 04:27:01;;;;;;;;;23.25;21.25;;;;;15.95;50.70;102228.69;4933379;29;10213;-77
2022/01/16 04:29:27;;;;;;;;;25.25;22.25;;;;;15.93;50.53;102222.50;4933427;29;8825;-77
2022/01/16 04:31:52;;;;;;;;;23.00;21.00;;;;;15.93;50.74;102227.75;4932713;29;8798;-77
2022/01/16 04:34:18;;;;;;;;;27.75;27.00;;;;;15.91;50.81;102228.59;4933872;29;8929;-77
2022/01/16 04:36:43;;;;;;;;;20.75;20.50;;;;;15.93;50.50;102226.91;4933370;29;8895;-77
2022/01/16 04:39:14;;;;;;;;;24.00;21.50;;;;;15.92;50.41;102225.13;4933066;29;8802;-78
2022/01/16 04:44:23;;;;;;;;;20.25;19.75;;;;;15.92;50.62;102211.94;4934937;29;10034;-78
2022/01/16 04:46:48;;;;;;;;;22.00;19.25;;;;;15.91;50.69;102212.78;4936222;29;10065;-78
2022/01/16 04:49:14;;;;;;;;;24.50;22.00;;;;;15.90;50.58;102211.91;4937097;29;8822;-78
2022/01/16 04:51:39;;;;;;;;;31.00;24.75;;;;;15.88;50.53;102208.34;4936909;29;8829;-78
2022/01/16 04:54:04;;;;;;;;;20.00;19.75;;;;;15.91;50.65;102208.41;4936546;29;8829;-78
2022/01/16 04:56:30;;;;;;;;;23.00;19.75;;;;;15.93;50.44;102209.31;4937453;29;8778;-78
2022/01/16 04:58:55;;;;;;;;;21.00;19.75;;;;;15.91;50.55;102210.16;4936828;29;9515;-78
2022/01/16 05:01:24;;;;;;;;;19.75;16.00;;;;;15.88;50.63;102207.47;4936529;29;8786;-78
2022/01/16 05:03:49;;;;;;;;;19.75;19.75;;;;;15.91;50.45;102207.53;4936969;29;8787;-78
2022/01/16 05:06:15;;;;;;;;;20.75;18.25;;;;;15.92;50.30;102217.22;4936606;29;10191;-78
2022/01/16 05:08:40;;;;;;;;;20.50;18.75;;;;;15.94;50.51;102215.50;4936078;29;8837;-78
2022/01/16 05:11:07;;;;;;;;;21.25;21.25;;;;;15.87;50.69;102211.84;4936864;29;8798;-78
2022/01/16 05:18:45;;;;;;;;;21.25;20.50;;;;;15.89;50.50;102204.88;4936342;29;10158;-78
2022/01/16 05:21:11;;;;;;;;;21.50;20.25;;;;;15.92;50.41;102210.22;4936085;29;10371;-78
2022/01/16 05:23:37;;;;;;;;;19.00;18.00;;;;;15.86;50.19;102204.78;4936668;29;8774;-76
2022/01/16 05:26:04;;;;;;;;;22.25;20.75;;;;;15.90;50.38;102197.84;4936205;29;10091;-76
2022/01/16 05:28:29;;;;;;;;;18.25;17.00;;;;;15.89;50.54;102198.72;4935955;29;8926;-76
2022/01/16 05:30:55;;;;;;;;;19.25;19.00;;;;;15.90;50.50;102205.75;4936118;29;9904;-77
2022/01/16 05:33:20;;;;;;;;;23.25;22.75;;;;;15.91;50.55;102207.53;4936355;29;8799;-77
2022/01/16 05:35:46;;;;;;;;;18.75;18.75;;;;;15.92;50.34;102212.84;4935653;29;8801;-77
2022/01/16 05:38:11;;;;;;;;;19.50;17.25;;;;;15.91;50.55;102204.91;4936550;29;8779;-77
2022/01/16 05:40:39;;;;;;;;;20.75;20.75;;;;;15.87;50.50;102214.47;4936469;29;8802;-78
2022/01/16 05:43:06;;;;;;;;;18.75;18.75;;;;;15.90;50.31;102217.16;4935500;29;8791;-78
2022/01/16 05:45:32;;;;;;;;;16.75;14.00;;;;;15.88;50.42;102213.63;4936199;29;10056;-78
2022/01/16 05:47:57;;;;;;;;;18.75;18.25;;;;;15.90;50.27;102221.53;4935875;29;10449;-77
2022/01/16 05:50:23;;;;;;;;;18.00;16.25;;;;;15.88;50.44;102221.53;4935450;29;9966;-77
2022/01/16 05:52:49;;;;;;;;;20.25;18.25;;;;;15.85;50.41;102217.94;4935625;29;9569;-76
2022/01/16 05:55:15;;;;;;;;;19.00;18.25;;;;;15.86;50.44;102217.94;4935860;29;10131;-77
2022/01/16 05:57:41;;;;;;;;;17.50;17.25;;;;;15.84;50.39;102222.31;4935107;29;8787;-76
2022/01/16 06:00:07;;;;;;;;;17.00;16.50;;;;;15.87;50.35;102221.47;4935891;29;8779;-77
2022/01/16 06:02:33;;;;;;;;;16.50;15.50;;;;;15.87;50.63;102210.94;4935554;29;8801;-76
2022/01/16 06:04:58;;;;;;;;;12.75;12.75;;;;;15.85;50.38;102210.94;4934952;29;9814;-77
2022/01/16 06:07:26;;;;;;;;;16.00;15.50;;;;;15.87;50.40;102205.69;4935460;29;8837;-76
2022/01/16 06:09:54;;;;;;;;;12.25;12.25;;;;;15.81;50.72;102201.19;4935564;29;8779;-77
2022/01/16 06:12:19;;;;;;;;;14.00;14.00;;;;;15.81;50.76;102205.56;4935000;29;9988;-77
2022/01/16 06:14:45;;;;;;;;;12.00;12.00;;;;;15.84;50.78;102211.78;4935788;29;10098;-77
2022/01/16 06:17:10;;;;;;;;;11.25;11.25;;;;;15.87;50.64;102208.31;4934892;29;8996;-77
2022/01/16 06:19:35;;;;;;;;;12.00;12.00;;;;;15.81;50.38;102213.47;4935732;29;8806;-77
2022/01/16 06:22:00;;;;;;;;;12.75;11.75;;;;;15.83;50.59;102219.63;4935505;29;8790;-77
2022/01/16 06:24:26;;;;;;;;;14.00;13.75;;;;;15.84;50.81;102222.31;4934962;29;9583;-78
2022/01/16 06:26:55;;;;;;;;;13.75;13.75;;;;;15.85;50.55;102212.66;4935102;29;9528;-78
2022/01/16 06:29:20;;;;;;;;;12.75;12.00;;;;;15.83;50.69;102219.63;4935310;29;8814;-78
2022/01/16 06:31:46;;;;;;;;;10.25;9.00;;;;;15.84;50.50;102222.31;4934508;29;9869;-77
2022/01/16 06:34:11;;;;;;;;;14.75;12.50;;;;;15.81;50.70;102227.53;4935570;29;8779;-77
2022/01/16 06:36:37;;;;;;;;;13.00;11.75;;;;;15.79;51.01;102233.59;4935481;29;8893;-76
2022/01/16 06:39:06;;;;;;;;;15.00;13.50;;;;;15.81;51.02;102222.25;4934383;29;8790;-77
2022/01/16 06:41:32;;;;;;;;;11.00;11.00;;;;;15.87;50.93;102234.66;4935062;29;9833;-77
2022/01/16 06:43:58;;;;;;;;;9.50;9.50;;;;;15.85;51.24;102241.66;4935181;29;9815;-77
2022/01/16 06:46:24;;;;;;;;;11.00;11.00;;;;;15.83;51.10;102238.97;4934429;29;9964;-76
2022/01/16 06:48:50;;;;;;;;;11.00;10.50;;;;;15.83;50.89;102244.22;4934603;29;8913;-78
2022/01/16 06:51:19;;;;;;;;;9.25;8.00;;;;;15.84;51.01;102246.00;4935139;29;8774;-77
2022/01/16 06:53:48;;;;;;;;;11.00;10.25;;;;;15.85;50.85;102252.19;4934185;29;10341;-77
2022/01/16 06:56:15;;;;;;;;;8.75;8.75;;;;;15.87;50.98;102255.72;4935170;29;9801;-77
2022/01/16 06:58:43;;;;;;;;;9.50;9.50;;;;;15.86;50.79;102269.72;4934742;29;9826;-77
2022/01/16 07:01:09;;;;;;;;;7.75;7.75;;;;;15.84;50.81;102274.09;4934454;29;9655;-77
2022/01/16 07:03:35;;;;;;;;;12.00;9.00;;;;;15.84;50.90;102279.34;4934884;29;9645;-77
2022/01/16 07:06:00;;;;;;;;;11.25;11.25;;;;;15.85;50.49;102279.41;4934537;29;10454;-77
2022/01/16 07:08:26;;;;;;;;;8.50;8.25;;;;;15.82;50.80;102276.69;4933802;29;8827;-77
2022/01/16 07:10:56;;;;;;;;;8.00;8.00;;;;;15.83;50.88;102277.56;4934390;29;8817;-77
2022/01/16 07:13:23;;;;;;;;;9.00;9.00;;;;;15.90;50.68;102282.13;4934626;29;8787;-77
2022/01/16 07:15:49;;;;;;;;;9.00;9.00;;;;;15.88;50.68;102283.84;4934090;29;9809;-77
2022/01/16 07:18:14;;;;;;;;;9.75;6.50;;;;;15.89;50.55;102281.25;4934813;29;9579;-77
2022/01/16 07:20:40;;;;;;;;;8.50;8.50;;;;;15.93;50.42;102290.13;4933737;29;9502;-77
2022/01/16 07:23:05;;;;;;;;;6.25;6.25;;;;;15.90;50.48;102304.09;4934475;29;9546;-77
2022/01/16 07:25:31;;;;;;;;;8.50;6.50;;;;;15.93;50.37;102300.66;4934821;29;8883;-77
2022/01/16 07:27:56;;;;;;;;;5.75;5.75;;;;;16.01;50.20;102308.72;4933084;29;8814;-78
2022/01/16 07:30:27;;;;;;;;;9.00;7.25;;;;;16.01;50.38;102309.59;4934341;29;8779;-77
2022/01/16 07:32:52;;;;;;;;;4.75;4.75;;;;;16.00;50.16;102321.00;4934031;29;8775;-78
2022/01/16 07:35:17;;;;;;;;;6.00;6.00;;;;;16.05;50.18;102310.56;4933756;29;9785;-77
2022/01/16 07:37:42;;;;;;;;;6.50;6.50;;;;;16.03;49.89;102315.81;4934202;29;8775;-78
2022/01/16 07:40:10;;;;;;;;;7.75;7.75;;;;;16.05;50.22;102324.63;4934266;29;8783;-78
2022/01/16 07:42:47;;;;;;;;;6.00;6.00;;;;;16.06;49.98;102329.03;4933590;29;9507;-77
2022/01/16 07:45:15;;;;;;;;;7.25;7.25;;;;;16.07;50.00;102329.94;4934043;29;9568;-78
2022/01/16 07:47:40;;;;;;;;;6.50;6.00;;;;;16.08;50.30;102314.19;4933969;29;9788;-78
2022/01/16 07:50:07;;;;;;;;;8.00;6.75;;;;;16.07;50.06;102314.13;4933506;29;9735;-78
2022/01/16 07:52:33;;;;;;;;;8.75;6.75;;;;;16.05;50.15;102321.09;4934013;29;8790;-78
2022/01/16 07:54:59;;;;;;;;;6.50;6.00;;;;;16.11;50.02;102332.69;4934030;29;9647;-78
2022/01/16 07:57:44;;;;;;;;;8.50;8.50;;;;;16.03;49.88;102334.25;4933084;29;9592;-78
2022/01/16 08:00:33;;;;;;;;;5.00;5.00;;;;;16.07;50.19;102348.38;4933318;29;8962;-78
2022/01/16 08:02:58;;;;;;;;;6.00;6.00;;;;;16.08;50.04;102353.69;4932906;29;9738;-78
2022/01/16 08:05:46;;;;;;;;;9.50;6.00;;;;;16.00;50.04;102333.28;4933367;29;9574;-78
2022/01/16 08:08:42;;;;;;;;;9.50;9.50;;;;;16.02;50.19;102334.19;4933801;29;8854;-78
2022/01/16 08:11:09;;;;;;;;;6.00;5.75;;;;;16.03;50.30;102336.88;4933165;29;9638;-78
2022/01/16 08:13:37;;;;;;;;;6.00;6.00;;;;;16.04;50.08;102341.31;4933542;29;9650;-77
2022/01/16 08:16:04;;;;;;;;;6.50;5.00;;;;;16.01;50.32;102337.72;4933772;29;9657;-77
2022/01/16 08:18:34;;;;;;;;;5.50;5.50;;;;;16.03;50.30;102336.88;4933266;29;9718;-77
2022/01/16 08:21:00;;;;;;;;;6.00;6.00;;;;;16.03;50.29;102326.34;4937680;29;9664;-78
2022/01/16 08:23:25;;;;;;;;;6.25;5.25;;;;;16.08;50.20;102335.25;4937761;29;9694;-78
2022/01/16 08:25:54;;;;;;;;;7.25;5.50;;;;;16.08;50.34;102335.25;4936626;29;8905;-78
2022/01/16 08:28:22;;;;;;;;;7.00;7.00;;;;;16.03;50.36;102318.44;4937579;29;8838;-77
2022/01/16 08:30:53;;;;;;;;;5.50;5.50;;;;;16.03;49.94;102317.53;4936619;29;9684;-77
2022/01/16 08:33:19;;;;;;;;;6.00;5.00;;;;;16.11;50.40;102327.41;4937533;29;9663;-78
2022/01/16 08:35:47;;;;;;;;;10.25;7.25;;;;;16.05;50.42;102332.53;4937258;29;9549;-78
2022/01/16 08:38:12;;;;;;;;;6.00;5.50;;;;;16.09;50.28;102333.47;4936882;29;8783;-78
2022/01/16 08:40:47;;;;;;;;;10.00;6.75;;;;;16.03;50.30;102322.81;4937627;29;10294;-78
2022/01/16 08:43:19;;;;;;;;;5.50;5.50;;;;;16.07;50.46;102329.94;4937540;29;8775;-78
2022/01/16 08:45:46;;;;;;;;;5.75;5.75;;;;;16.02;50.22;102327.19;4936519;29;9552;-77
2022/01/16 08:48:11;;;;;;;;;6.50;6.25;;;;;16.04;50.36;102328.13;4937299;29;9601;-77
2022/01/16 08:50:48;;;;;;;;;6.25;6.25;;;;;16.05;50.24;102324.63;4937575;29;9491;-78
2022/01/16 08:53:13;;;;;;;;;5.50;4.25;;;;;16.06;50.53;102341.31;4936245;29;8782;-78
2022/01/16 08:55:39;;;;;;;;;10.50;7.25;;;;;16.09;50.35;102350.19;4937462;29;9431;-77
2022/01/16 08:58:04;;;;;;;;;6.00;6.00;;;;;16.12;50.32;102362.56;4937017;29;8801;-77
2022/01/16 09:00:32;;;;;;;;;5.25;5.00;;;;;16.12;50.29;102357.28;4936690;29;8985;-78
2022/01/16 09:02:57;;;;;;;;;4.25;4.25;;;;;16.14;50.54;102374.91;4936492;29;8796;-78
2022/01/16 09:05:24;;;;;;;;;4.00;4.00;;;;;16.13;50.37;102364.31;4937350;29;9569;-78
2022/01/16 09:07:49;;;;;;;;;4.50;4.50;;;;;16.16;50.52;102372.31;4935967;29;9567;-77
2022/01/16 09:10:15;;;;;;;;;6.50;6.50;;;;;16.17;50.28;102368.81;4936737;29;9431;-78
2022/01/16 09:12:40;;;;;;;;;4.75;4.75;;;;;16.17;50.51;102368.81;4936841;29;8801;-78
2022/01/16 09:15:08;;;;;;;;;7.25;6.00;;;;;16.19;50.49;102375.00;4936085;29;8862;-78
2022/01/16 09:17:34;;;;;;;;;4.00;4.00;;;;;16.16;50.50;102370.53;4936683;29;9527;-77
2022/01/16 09:19:59;;;;;;;;;6.00;6.00;;;;;16.18;50.70;102379.38;4936199;29;9743;-77
2022/01/16 09:22:24;;;;;;;;;5.00;5.00;;;;;16.21;50.70;102379.44;4935776;29;8787;-78
2022/01/16 09:24:49;;;;;;;;;9.00;9.00;;;;;16.21;50.28;102383.84;4935938;29;8775;-77
2022/01/16 09:27:15;;;;;;;;;6.00;6.00;;;;;16.21;50.43;102392.63;4936118;29;8774;-77
2022/01/16 09:29:40;;;;;;;;;6.00;6.00;;;;;16.23;50.45;102390.03;4935810;29;8822;-77
2022/01/16 09:32:06;;;;;;;;;5.75;5.75;;;;;16.23;50.53;102400.59;4936546;29;8877;-77
2022/01/16 09:34:32;;;;;;;;;5.75;5.75;;;;;16.24;50.54;102404.97;4935570;29;8794;-78
2022/01/16 09:36:57;;;;;;;;;7.25;7.00;;;;;16.28;52.35;102409.47;4936269;29;8782;-78
2022/01/16 09:39:22;;;;;;;;;6.00;6.00;;;;;16.25;50.84;102412.03;4934668;29;12171;-77
2022/01/16 09:41:48;;;;;;;;;6.00;6.00;;;;;16.31;50.97;102414.81;4935565;29;8819;-77
2022/01/16 09:44:15;;;;;;;;;11.00;9.75;;;;;16.25;51.04;102407.66;4936351;29;8783;-75
2022/01/16 09:46:40;;;;;;;;;6.25;6.25;;;;;16.24;51.28;102411.13;4936184;29;8823;-78
2022/01/16 09:49:05;;;;;;;;;2.25;2.25;;;;;16.24;50.90;102407.63;4936120;29;9695;-76
2022/01/16 09:51:31;;;;;;;;;7.00;5.00;;;;;16.28;50.99;102410.38;4925547;29;8805;-78
2022/01/16 09:53:58;;;;;;;;;9.00;9.00;;;;;16.25;51.27;102419.94;4917069;29;8793;-77
2022/01/16 09:56:23;;;;;;;;;7.75;6.50;;;;;16.25;51.34;102418.19;4922475;29;8812;-78
2022/01/16 09:58:48;;;;;;;;;12.25;9.00;;;;;16.28;51.13;102422.66;4936355;29;9624;-78
2022/01/16 10:01:14;;;;;;;;;10.75;9.25;;;;;16.26;51.42;102432.28;4936105;29;8803;-77
2022/01/16 10:03:42;;;;;;;;;10.50;9.50;;;;;16.27;51.01;102434.06;4935265;29;8806;-78
2022/01/16 10:06:19;;;;;;;;;11.00;10.25;;;;;16.28;51.04;102436.72;4934181;29;8823;-76
2022/01/16 10:08:45;;;;;;;;;12.00;12.00;;;;;16.27;51.13;102432.28;4935382;29;9866;-77
2022/01/16 10:11:39;;;;;;;;;6.00;6.00;;;;;16.25;51.25;102426.09;4935274;29;9842;-77
2022/01/16 10:14:22;;;;;;;;;11.25;11.25;;;;;16.27;51.23;102440.19;4935898;29;10605;-77
2022/01/16 10:16:48;;;;;;;;;10.00;9.00;;;;;16.26;50.99;102434.91;4933934;29;9843;-78
2022/01/16 10:19:25;;;;;;;;;9.75;7.50;;;;;16.23;51.14;102442.75;4936547;29;9639;-77
2022/01/16 10:21:54;;;;;;;;;9.75;9.75;;;;;16.23;51.43;102464.69;4936368;29;9697;-76
2022/01/16 10:24:26;;;;;;;;;12.00;12.00;;;;;16.22;51.32;102452.41;4935904;29;9558;-76
2022/01/16 10:27:10;;;;;;;;;11.75;9.50;;;;;16.24;50.98;102455.03;4934873;29;9800;-76
2022/01/16 10:29:40;;;;;;;;;10.75;10.75;;;;;16.24;51.15;102463.84;4936250;29;9627;-76
2022/01/16 10:32:18;;;;;;;;;12.25;11.50;;;;;16.19;51.29;102457.59;4935442;29;9595;-76
2022/01/16 10:34:45;;;;;;;;;11.00;11.00;;;;;16.17;51.38;102445.22;4936361;29;9578;-78
2022/01/16 10:37:25;;;;;;;;;12.00;10.75;;;;;16.23;51.15;102456.78;4934739;29;9853;-78
2022/01/16 10:40:03;;;;;;;;;11.50;11.00;;;;;16.23;51.53;102451.50;4935866;29;9660;-78
2022/01/16 10:42:30;;;;;;;;;11.00;11.00;;;;;16.20;51.52;102459.34;4935067;29;9590;-78
2022/01/16 10:45:13;;;;;;;;;10.75;9.75;;;;;16.23;51.38;102467.34;4934437;29;9555;-79
2022/01/16 10:47:57;;;;;;;;;11.00;10.25;;;;;16.24;51.32;102457.69;4933844;29;9456;-79
2022/01/16 10:50:28;;;;;;;;;13.25;12.00;;;;;16.20;51.27;102458.47;4934948;29;9724;-79
2022/01/16 10:52:57;;;;;;;;;13.25;11.50;;;;;16.20;51.52;102446.19;4934663;29;9983;-77
2022/01/16 10:55:32;;;;;;;;;11.50;11.25;;;;;16.21;51.32;102452.34;4935891;29;9663;-78
2022/01/16 10:58:07;;;;;;;;;13.50;13.50;;;;;16.19;51.38;102452.31;4934261;29;9781;-77
2022/01/16 11:00:33;;;;;;;;;19.50;15.00;;;;;16.29;54.75;102446.41;4934743;29;9793;-81
2022/01/16 11:03:00;;;;;;;;;17.75;14.00;;;;;16.38;57.47;102446.59;4934525;29;9899;-81
2022/01/16 11:05:36;;;;;;;;;15.50;14.50;;;;;16.47;59.25;102445.03;4934797;29;8863;-80
2022/01/16 11:08:17;;;;;;;;;20.25;18.50;;;;;16.48;59.91;102447.72;4932768;29;9948;-80
2022/01/16 11:11:06;;;;;;;;;22.00;21.00;;;;;16.60;62.09;102458.59;4934502;29;9973;-83
2022/01/16 11:14:08;;;;;;;;;16.00;14.25;;;;;16.60;62.82;102436.59;4928221;29;10133;-82
2022/01/16 11:16:43;;;;;;;;;18.00;17.00;;;;;16.67;60.77;102444.69;4934560;29;9806;-78
2022/01/16 11:19:09;;;;;;;;;20.25;16.25;;;;;16.70;61.94;102457.94;4934552;29;10011;-78
2022/01/16 11:21:41;;;;;;;;;14.75;14.75;;;;;16.70;62.00;102454.41;4933969;29;9892;-80
2022/01/16 11:24:36;;;;;;;;;20.50;19.25;;;;;16.89;65.45;102457.50;4934277;29;9882;-83
2022/01/16 11:27:02;;;;;;;;;19.00;17.75;;;;;17.00;65.55;102470.00;4933423;29;9937;-79
2022/01/16 11:29:29;;;;;;;;;19.25;17.50;;;;;16.84;63.86;102474.94;4933951;29;9998;-82
2022/01/16 11:31:59;;;;;;;;;23.00;19.25;;;;;16.69;64.77;102463.16;4933395;29;8790;-80
2022/01/16 11:34:37;;;;;;;;;16.50;15.00;;;;;16.58;62.56;102454.13;4933441;29;10033;-80
2022/01/16 11:37:03;;;;;;;;;23.25;22.00;;;;;16.58;63.99;102459.41;4933932;29;10057;-80
2022/01/16 11:39:36;;;;;;;;;17.75;16.75;;;;;16.54;63.88;102447.84;4933650;29;9996;-79
2022/01/16 11:42:21;;;;;;;;;21.00;19.25;;;;;16.60;63.99;102452.44;4931507;29;8791;-79
2022/01/16 11:45:09;;;;;;;;;24.50;20.00;;;;;16.62;63.82;102458.63;4932559;29;9913;-80
2022/01/16 11:47:35;;;;;;;;;20.75;18.75;;;;;16.59;64.34;102451.53;4932819;29;10000;-80
2022/01/16 11:50:08;;;;;;;;;19.25;17.75;;;;;16.60;63.94;102457.72;4932085;29;9997;-79
2022/01/16 11:52:44;;;;;;;;;17.00;15.25;;;;;16.54;63.39;102460.16;4933536;29;8810;-79
2022/01/16 11:55:43;;;;;;;;;17.25;16.75;;;;;16.50;63.30;102447.75;4933145;29;10064;-79
2022/01/16 11:58:09;;;;;;;;;17.50;17.25;;;;;16.48;63.23;102444.19;4933873;29;9802;-80
2022/01/16 12:00:45;;;;;;;;;19.50;17.00;;;;;16.56;63.04;102448.84;4932429;29;9911;-80
2022/01/16 12:03:43;;;;;;;;;22.50;21.25;;;;;16.58;62.46;102456.75;4932516;29;8821;-79
2022/01/16 12:06:37;;;;;;;;;20.75;19.50;;;;;16.58;63.37;102455.03;4933316;29;9936;-80
2022/01/16 12:12:12;;;;;;;;;18.25;18.25;;;;;16.77;61.73;102445.78;4856027;29;9769;-80
2022/01/16 12:14:50;;;;;;;;;19.50;17.75;;;;;16.86;61.46;102459.16;4866000;29;9754;-80
2022/01/16 12:17:49;;;;;;;;;16.50;15.50;;;;;16.88;60.97;102450.41;4913603;29;8864;-80